• Join FlightAware (Why Join?)
  • Login
  • US Flag 
02:32AM EDT


 

Airport Tracker/Info


-or-


 

Live Flight TrackerFlight Track Log ✈ AWE3417 ✈ 23-Apr-2013 ✈ KDCA - KCMH

Flight Track Log - Related Links

Times and Time Zones

All times are in EDT time to prevent confusion due to time zone crossing. See the AWE3417 flight status page for this flight to view local times or setup timezone preferences in your user account.

Time Position Orientation Groundspeed Altitude Reporting Facility
EDT Latitude Longitude Course Direction KTS MPH feet Rate Location/Type
09:06PM 38.8167 -77.0333 270° West 160 184 1,800  Level Potomac TRACON
09:07PM 38.7667 -77.0333 180° South 230 265 3,500 2,640 Climbing Potomac TRACON
09:08PM 38.9167 -77.3891 270° West  Level FlightAware Approximate
09:08PM 38.7333 -77.1167 243° Southwest 255 293 6,900  Level Potomac TRACON
09:09PM 38.9333 -77.5106 270° West  Level FlightAware Approximate
09:09PM 38.7333 -77.2167 270° West 264 304 9,700  Level Potomac TRACON
09:10PM 38.9333 -77.6384 270° West  Level FlightAware Approximate
09:11PM 38.9333 -77.7663 270° West  Level FlightAware Approximate
09:11PM 38.8119 -77.4111 297° West 312 359 14,400  Level Washington Center
09:12PM 38.8606 -77.5111 302° West 328 377 17,100 2,400 Climbing Washington Center
09:13PM 38.9108 -77.6164 302° West 346 398 19,200 2,040 Climbing Washington Center
09:14PM 38.9425 -77.7242 291° West 352 405 21,200 2,340 Climbing Washington Center
09:15PM 38.9483 -77.8656 273° West 359 413 23,900 2,460 Climbing Washington Center
09:16PM 38.9522 -77.9858 272° West 367 422 26,200 1,500 Climbing Washington Center
09:17PM 38.9578 -78.1117 273° West 367 422 27,000 480 Climbing Washington Center
09:18PM 38.9614 -78.2372 272° West 362 417 27,200 720 Climbing Washington Center
09:19PM 38.9647 -78.3656 272° West 367 422 28,500 1,200 Climbing Washington Center
09:20PM 38.9700 -78.4992 273° West 367 422 29,700 720 Climbing Washington Center
09:21PM 38.9750 -78.6356 273° West 372 428 30,000 120 Climbing Washington Center
09:22PM 38.9775 -78.7825 271° West 394 453 30,000  Level Washington Center
09:23PM 38.9819 -78.9269 272° West 406 467 30,000  Level Washington Center
09:24PM 38.9881 -79.0714 273° West 411 473 30,000  Level Washington Center
09:25PM 38.9900 -79.2183 271° West 411 473 30,000  Level Washington Center
09:26PM 38.9939 -79.3628 272° West 411 473 30,000  Level Washington Center
09:27PM 38.9956 -79.5097 271° West 411 473 30,000  Level Washington Center
09:29PM 39.0006 -79.8372 271° West 413 475 30,000  Level Indianapolis Center
09:30PM 39.0022 -79.9794 271° West 412 474 30,000  Level Indianapolis Center
09:31PM 39.0050 -80.1267 271° West 410 472 30,000  Level Indianapolis Center
09:32PM 39.0075 -80.2736 271° West 412 474 30,000  Level Indianapolis Center
09:33PM 39.0083 -80.4200 270° West 411 473 30,000  Level Indianapolis Center
09:34PM 39.0436 -80.5878 285° West 413 475 30,000  Level Indianapolis Center
09:35PM 39.0869 -80.7214 293° West 407 468 30,000  Level Indianapolis Center
09:36PM 39.1286 -80.8536 292° West 402 463 30,000  Level Indianapolis Center
09:37PM 39.1717 -80.9858 293° West 402 463 30,000 -240 Level Indianapolis Center
09:38PM 39.2128 -81.1183 292° West 402 463 29,600 -1,200 Descending Indianapolis Center
09:39PM 39.2553 -81.2536 292° West 408 470 27,600 -1,920 Descending Indianapolis Center
09:40PM 39.2950 -81.3844 291° West 395 455 25,700 -1,860 Descending Indianapolis Center
09:41PM 39.3356 -81.5131 292° West 389 448 23,800 -2,100 Descending Indianapolis Center
09:42PM 39.3814 -81.6633 292° West 378 435 21,400 -2,100 Descending Indianapolis Center
09:43PM 39.4194 -81.7858 292° West 370 426 19,600 -1,860 Descending Indianapolis Center
09:45PM 39.4622 -81.9286 291° West 349 402 17,400 -1,860 Descending Indianapolis Center
09:45PM 39.4869 -82.0067 292° West 340 391 16,100 -1,800 Descending Indianapolis Center
09:46PM 39.5217 -82.1208 292° West 340 391 14,400 -1,680 Descending Indianapolis Center
09:47PM 39.5639 -82.2375 295° West 331 381 12,500 -1,800 Descending Indianapolis Center
09:48PM 39.6500 -82.2828 338° Northwest 336 387 10,800 -1,380 Descending Indianapolis Center
09:50PM 39.7303 -82.3203 340° North 296 341 9,700 -1,560 Descending Indianapolis Center
09:50PM 39.7908 -82.3681 329° Northwest 262 302 7,700 -2,280 Descending Indianapolis Center
09:51PM 39.8586 -82.4214 329° Northwest 280 322 5,500 -1,860 Descending Indianapolis Center
09:52PM 39.8950 -82.5094 298° West 276 318 4,000 -1,260 Descending Indianapolis Center
09:53PM 39.9308 -82.6031 297° West 271 312 3,000 -780 Descending Indianapolis Center
09:54PM 39.9628 -82.6908 295° West 268 308 2,500 -540 Descending Indianapolis Center